Liberta — V2CM3 — position and weather

sailwx.info

Track history (hours):
 
Tides and Currents Weather Stations Pressure Air Temp Water Temp Dewpoint Dewpoint Depression Visibility Wind Speed Wind Dir Waves Ship Positions

Liberta

Last reported at 2015-Jul-29 01:34 UTC. Time now 2015-Aug-01 11:51 UTC.
Position N 55°13' E 019°07'.

Length 138 m; draft 5.4 m.

Type: Cargo ship. MMSI: 305043000.

Date/timePositionNaut miles runAvg speedWind from/ knotsBaromVisibWave heightAir tempDewpointWater temp
2015-Jul-29 01:34N 55°13' E 019°07'1313.5
2015-Jul-29 00:34N 55°07' E 018°46'1313.5
2015-Jul-28 23:34N 55°01' E 018°25'12113.4
2015-Jul-28 14:31N 54°38' E 014°59'1413.3
2015-Jul-28 13:28N 54°36' E 014°34'1112.5
2015-Jul-28 12:33N 54°38' E 014°15'1312.9
2015-Jul-28 11:34N 54°41' E 013°54'5412.5
2015-Jul-28 07:14N 54°35' E 012°21'913.4
2015-Jul-28 06:33N 54°27' E 012°14'1312.7
2015-Jul-28 05:34N 54°24' E 011°53'1312.8
2015-Jul-28 04:33N 54°29' E 011°32'1312.7
2015-Jul-28 03:33N 54°35' E 011°12'12610.3
2015-Jul-27 15:22N 56°39' E 011°46'910.6
2015-Jul-27 14:33N 56°47' E 011°50'1212.0
2015-Jul-27 13:33N 56°59' E 011°43'1211.6
2015-Jul-27 12:33N 57°10' E 011°36'1211.7
2015-Jul-27 11:33N 57°21' E 011°29'1111.1
2015-Jul-27 10:33N 57°30' E 011°19'1212.2
2015-Jul-27 09:32N 57°39' E 011°01'1212.3
2015-Jul-27 08:33N 57°47' E 010°44'1413.9
2015-Jul-27 07:33N 57°45' E 010°19'5713.1
2015-Jul-27 03:12N 57°23' E 008°40'913.0
2015-Jul-27 02:31N 57°19' E 008°26'21312.5
2015-Jul-26 09:28N 54°15' E 005°16'1111.8
2015-Jul-26 08:33N 54°05' E 005°08'1211.6
2015-Jul-26 07:32N 53°54' E 005°01'1411.1
2015-Jul-26 06:17N 53°41' E 004°53'8 9.5
2015-Jul-26 05:25N 53°33' E 004°48'8 8.9
2015-Jul-26 04:32N 53°26' E 004°43'17 8.7
2015-Jul-26 02:32N 53°10' E 004°31'9 8.9
2015-Jul-26 01:33N 53°03' E 004°24'9 9.0
2015-Jul-26 00:33N 52°54' E 004°17'9 9.5
2015-Jul-25 23:33N 52°46' E 004°09'9 9.4
2015-Jul-25 22:33N 52°38' E 004°01'9 9.2
2015-Jul-25 21:32N 52°30' E 003°54'7 6.9
2015-Jul-25 20:28N 52°22' E 003°52'5 5.0
2015-Jul-25 19:32N 52°19' E 003°57'4 4.0
2015-Jul-25 18:33N 52°15' E 003°60'3 3.1
2015-Jul-25 17:34N 52°13' E 004°02'2 2.4
2015-Jul-25 16:33N 52°11' E 004°05'2 1.7
2015-Jul-25 15:34N 52°10' E 004°07'1 1.3
2015-Jul-25 14:33N 52°10' E 004°09'3 3.0
2015-Jul-25 13:33N 52°13' E 004°11'2 1.9
2015-Jul-25 12:33N 52°13' E 004°08'2 2.1
2015-Jul-25 11:33N 52°15' E 004°08'2 1.5
2015-Jul-25 10:33N 52°15' E 004°06'4 3.9
2015-Jul-25 09:33N 52°12' E 004°01'4 4.0
2015-Jul-25 08:33N 52°10' E 003°56'8 7.7
2015-Jul-25 07:32N 52°06' E 003°44'2 2.0
2015-Jul-25 06:26N 52°07' E 003°42'0 0.1
2015-Jul-25 05:17N 52°07' E 003°42'0 0.1
2015-Jul-25 04:26N 52°07' E 003°42'0 0.1
2015-Jul-25 03:20N 52°07' E 003°41'0 0.2
2015-Jul-25 02:32N 52°07' E 003°41'0 0.0
2015-Jul-25 01:29N 52°07' E 003°41'0 0.0
2015-Jul-25 00:29N 52°07' E 003°41'0 0.0
2015-Jul-24 23:29N 52°07' E 003°41'0 0.0
2015-Jul-24 22:29N 52°07' E 003°41'0 0.0
2015-Jul-24 21:17N 52°07' E 003°41'0 0.0
2015-Jul-24 20:26N 52°07' E 003°41'0 0.0
2015-Jul-24 19:32N 52°07' E 003°41'0 0.1
2015-Jul-24 18:29N 52°07' E 003°41'0 0.1
2015-Jul-24 17:29N 52°07' E 003°41'0 0.0
2015-Jul-24 16:32N 52°07' E 003°41'0 0.0
2015-Jul-24 15:32N 52°07' E 003°41'0 0.0
2015-Jul-24 14:32N 52°07' E 003°41'0 0.0
2015-Jul-24 13:32N 52°07' E 003°41'0 0.0
2015-Jul-24 12:20N 52°07' E 003°41'0 0.0
2015-Jul-24 11:17N 52°07' E 003°41'0 0.1
2015-Jul-24 10:23N 52°07' E 003°41'0 0.1
2015-Jul-24 09:32N 52°07' E 003°41'0 0.0
2015-Jul-24 08:11N 52°07' E 003°41'0 0.0
2015-Jul-24 07:29N 52°07' E 003°41'0 0.0
2015-Jul-24 06:17N 52°07' E 003°41'0 0.0
2015-Jul-24 05:32N 52°07' E 003°41'0 0.1
2015-Jul-24 04:32N 52°07' E 003°41'0 0.0
2015-Jul-24 03:32N 52°07' E 003°41'0 0.0
2015-Jul-23 23:17N 52°07' E 003°41'0 0.1
2015-Jul-23 22:20N 52°07' E 003°41'0 0.0
2015-Jul-23 20:14N 52°07' E 003°41'0 0.0
2015-Jul-23 19:17N 52°07' E 003°41'0 0.0
2015-Jul-23 17:17N 52°07' E 003°41'0 0.1
2015-Jul-23 16:23N 52°07' E 003°41'0 0.0
2015-Jul-23 11:29N 52°07' E 003°41'0 0.1
2015-Jul-23 10:32N 52°07' E 003°42'0 0.0
2015-Jul-23 09:23N 52°07' E 003°42'0 0.0
2015-Jul-23 08:32N 52°07' E 003°42'0 0.0
2015-Jul-23 07:23N 52°07' E 003°42'0 0.0
2015-Jul-23 05:11N 52°07' E 003°42'0 0.1
2015-Jul-23 04:32N 52°07' E 003°42'0 0.0
2015-Jul-23 03:29N 52°07' E 003°41'0 0.0
2015-Jul-23 02:23N 52°07' E 003°41'0 0.0
2015-Jul-23 01:29N 52°07' E 003°41'0 0.0
2015-Jul-23 00:11N 52°07' E 003°41'0 0.1
2015-Jul-22 23:29N 52°07' E 003°41'0 0.1
2015-Jul-22 22:17N 52°07' E 003°42'0 0.0
2015-Jul-22 21:29N 52°07' E 003°42'0 0.0
2015-Jul-22 20:23N 52°07' E 003°42'0 0.0
2015-Jul-22 19:29N 52°07' E 003°42'0 0.0
2015-Jul-22 18:29N 52°07' E 003°41'0 0.0
2015-Jul-22 17:29N 52°07' E 003°42'0 0.0
2015-Jul-22 16:32N 52°07' E 003°42'0 0.0
2015-Jul-22 15:08N 52°07' E 003°41'0 0.0
2015-Jul-22 14:32N 52°07' E 003°42'0 0.0
2015-Jul-22 10:23N 52°07' E 003°42'0 0.0
2015-Jul-22 09:08N 52°07' E 003°42'0 0.0
2015-Jul-22 08:17N 52°07' E 003°42'0 0.0
2015-Jul-22 07:26N 52°07' E 003°42'0 0.0
2015-Jul-22 06:11N 52°07' E 003°42'0 0.0
2015-Jul-22 05:26N 52°07' E 003°42'0 0.0
2015-Jul-22 04:08N 52°07' E 003°42'0 0.0
2015-Jul-22 03:29N 52°07' E 003°42'0 0.0
2015-Jul-22 02:32N 52°07' E 003°42'0 0.0
2015-Jul-22 00:32N 52°07' E 003°42'0 0.0
2015-Jul-21 23:26N 52°07' E 003°42'0 0.0
2015-Jul-21 21:32N 52°07' E 003°42'0 0.0
2015-Jul-21 20:23N 52°07' E 003°41'0 0.0
2015-Jul-21 19:20N 52°07' E 003°41'0 0.0
2015-Jul-21 18:29N 52°07' E 003°41'0 0.0
2015-Jul-21 17:29N 52°07' E 003°41'0 0.0
2015-Jul-21 16:29N 52°07' E 003°42'0 0.0
2015-Jul-21 15:29N 52°07' E 003°42'0 0.0
2015-Jul-21 14:32N 52°07' E 003°41'0 0.1
2015-Jul-21 13:29N 52°07' E 003°41'0 0.0
2015-Jul-21 12:26N 52°07' E 003°41'0 0.1
2015-Jul-21 11:17N 52°07' E 003°41'0 0.0
2015-Jul-21 10:32N 52°07' E 003°42'0 0.0
2015-Jul-21 08:26N 52°07' E 003°42'0 0.0
2015-Jul-21 07:26N 52°07' E 003°42'0 0.0
2015-Jul-21 05:29N 52°07' E 003°42'0 0.0
2015-Jul-21 04:29N 52°07' E 003°42'0 0.0
2015-Jul-21 03:23N 52°07' E 003°42'0 0.0
2015-Jul-21 02:26N 52°07' E 003°42'0 0.0
2015-Jul-21 01:32N 52°07' E 003°42'0 0.0
2015-Jul-20 23:23N 52°07' E 003°41'0 0.0
2015-Jul-20 22:29N 52°07' E 003°42'0 0.0
2015-Jul-20 21:29N 52°07' E 003°42'0 0.0
2015-Jul-20 20:23N 52°07' E 003°41'0 0.0
2015-Jul-20 19:26N 52°07' E 003°42'0 0.0
2015-Jul-20 18:23N 52°07' E 003°41'0 0.0
2015-Jul-20 17:32N 52°07' E 003°41'0 0.0
2015-Jul-20 16:20N 52°07' E 003°41'0 0.0
2015-Jul-20 15:05N 52°07' E 003°41'0 0.1
2015-Jul-20 14:29N 52°07' E 003°41'0 0.0
2015-Jul-20 08:29N 52°07' E 003°41'0 0.0
2015-Jul-20 07:29N 52°07' E 003°41'0 0.0
2015-Jul-20 05:26N 52°07' E 003°41'0 0.0
2015-Jul-20 04:08N 52°07' E 003°41'0 0.0
2015-Jul-20 03:05N 52°07' E 003°41'0 0.0
2015-Jul-20 02:32N 52°07' E 003°41'0 0.0
2015-Jul-19 21:29N 52°07' E 003°41'0 0.1
2015-Jul-19 20:14N 52°07' E 003°41'0 0.0
2015-Jul-19 18:32N 52°07' E 003°41'0 0.0
2015-Jul-19 17:29N 52°07' E 003°42'0 0.0
2015-Jul-19 16:32N 52°07' E 003°41'0 0.0
2015-Jul-19 15:32N 52°07' E 003°41'0 0.0
2015-Jul-19 13:14N 52°07' E 003°42'0 0.1
2015-Jul-19 12:32N 52°07' E 003°42'0 0.0
2015-Jul-19 09:33N 52°07' E 003°41'9 8.8
2015-Jul-19 08:33N 52°02' E 003°53'1111.5
2015-Jul-19 07:33N 51°57' E 004°10'10 9.6
2015-Jul-19 06:33N 51°55' E 004°25'0 0.1
2015-Jul-19 05:32N 51°55' E 004°25'0 0.0
2015-Jul-19 04:32N 51°55' E 004°25'  
Track history (hours):
 
Tides and Currents Weather Stations Pressure Air Temp Water Temp Dewpoint Dewpoint Depression Visibility Wind Speed Wind Dir Waves Ship Positions

Liberta

Last reported at 2015-Jul-29 01:34 UTC. Time now 2015-Aug-01 11:51 UTC.
Position N 55°13' E 019°07'.

Length 138 m; draft 5.4 m.

Type: Cargo ship. MMSI: 305043000.

Date/timePositionNaut miles runAvg speedWind from/ knotsBaromVisibWave heightAir tempDewpointWater temp
2015-Jul-29 01:34N 55°13' E 019°07'1313.5
2015-Jul-29 00:34N 55°07' E 018°46'1313.5
2015-Jul-28 23:34N 55°01' E 018°25'12113.4
2015-Jul-28 14:31N 54°38' E 014°59'1413.3
2015-Jul-28 13:28N 54°36' E 014°34'1112.5
2015-Jul-28 12:33N 54°38' E 014°15'1312.9
2015-Jul-28 11:34N 54°41' E 013°54'5412.5
2015-Jul-28 07:14N 54°35' E 012°21'913.4
2015-Jul-28 06:33N 54°27' E 012°14'1312.7
2015-Jul-28 05:34N 54°24' E 011°53'1312.8
2015-Jul-28 04:33N 54°29' E 011°32'1312.7
2015-Jul-28 03:33N 54°35' E 011°12'12610.3
2015-Jul-27 15:22N 56°39' E 011°46'910.6
2015-Jul-27 14:33N 56°47' E 011°50'1212.0
2015-Jul-27 13:33N 56°59' E 011°43'1211.6
2015-Jul-27 12:33N 57°10' E 011°36'1211.7
2015-Jul-27 11:33N 57°21' E 011°29'1111.1
2015-Jul-27 10:33N 57°30' E 011°19'1212.2
2015-Jul-27 09:32N 57°39' E 011°01'1212.3
2015-Jul-27 08:33N 57°47' E 010°44'1413.9
2015-Jul-27 07:33N 57°45' E 010°19'5713.1
2015-Jul-27 03:12N 57°23' E 008°40'913.0
2015-Jul-27 02:31N 57°19' E 008°26'21312.5
2015-Jul-26 09:28N 54°15' E 005°16'1111.8
2015-Jul-26 08:33N 54°05' E 005°08'1211.6
2015-Jul-26 07:32N 53°54' E 005°01'1411.1
2015-Jul-26 06:17N 53°41' E 004°53'8 9.5
2015-Jul-26 05:25N 53°33' E 004°48'8 8.9
2015-Jul-26 04:32N 53°26' E 004°43'17 8.7
2015-Jul-26 02:32N 53°10' E 004°31'9 8.9
2015-Jul-26 01:33N 53°03' E 004°24'9 9.0
2015-Jul-26 00:33N 52°54' E 004°17'9 9.5
2015-Jul-25 23:33N 52°46' E 004°09'9 9.4
2015-Jul-25 22:33N 52°38' E 004°01'9 9.2
2015-Jul-25 21:32N 52°30' E 003°54'7 6.9
2015-Jul-25 20:28N 52°22' E 003°52'5 5.0
2015-Jul-25 19:32N 52°19' E 003°57'4 4.0
2015-Jul-25 18:33N 52°15' E 003°60'3 3.1
2015-Jul-25 17:34N 52°13' E 004°02'2 2.4
2015-Jul-25 16:33N 52°11' E 004°05'2 1.7
2015-Jul-25 15:34N 52°10' E 004°07'1 1.3
2015-Jul-25 14:33N 52°10' E 004°09'3 3.0
2015-Jul-25 13:33N 52°13' E 004°11'2 1.9
2015-Jul-25 12:33N 52°13' E 004°08'2 2.1
2015-Jul-25 11:33N 52°15' E 004°08'2 1.5
2015-Jul-25 10:33N 52°15' E 004°06'4 3.9
2015-Jul-25 09:33N 52°12' E 004°01'4 4.0
2015-Jul-25 08:33N 52°10' E 003°56'8 7.7
2015-Jul-25 07:32N 52°06' E 003°44'2 2.0
2015-Jul-25 06:26N 52°07' E 003°42'0 0.1
2015-Jul-25 05:17N 52°07' E 003°42'0 0.1
2015-Jul-25 04:26N 52°07' E 003°42'0 0.1
2015-Jul-25 03:20N 52°07' E 003°41'0 0.2
2015-Jul-25 02:32N 52°07' E 003°41'0 0.0
2015-Jul-25 01:29N 52°07' E 003°41'0 0.0
2015-Jul-25 00:29N 52°07' E 003°41'0 0.0
2015-Jul-24 23:29N 52°07' E 003°41'0 0.0
2015-Jul-24 22:29N 52°07' E 003°41'0 0.0
2015-Jul-24 21:17N 52°07' E 003°41'0 0.0
2015-Jul-24 20:26N 52°07' E 003°41'0 0.0
2015-Jul-24 19:32N 52°07' E 003°41'0 0.1
2015-Jul-24 18:29N 52°07' E 003°41'0 0.1
2015-Jul-24 17:29N 52°07' E 003°41'0 0.0
2015-Jul-24 16:32N 52°07' E 003°41'0 0.0
2015-Jul-24 15:32N 52°07' E 003°41'0 0.0
2015-Jul-24 14:32N 52°07' E 003°41'0 0.0
2015-Jul-24 13:32N 52°07' E 003°41'0 0.0
2015-Jul-24 12:20N 52°07' E 003°41'0 0.0
2015-Jul-24 11:17N 52°07' E 003°41'0 0.1
2015-Jul-24 10:23N 52°07' E 003°41'0 0.1
2015-Jul-24 09:32N 52°07' E 003°41'0 0.0
2015-Jul-24 08:11N 52°07' E 003°41'0 0.0
2015-Jul-24 07:29N 52°07' E 003°41'0 0.0
2015-Jul-24 06:17N 52°07' E 003°41'0 0.0
2015-Jul-24 05:32N 52°07' E 003°41'0 0.1
2015-Jul-24 04:32N 52°07' E 003°41'0 0.0
2015-Jul-24 03:32N 52°07' E 003°41'0 0.0
2015-Jul-23 23:17N 52°07' E 003°41'0 0.1
2015-Jul-23 22:20N 52°07' E 003°41'0 0.0
2015-Jul-23 20:14N 52°07' E 003°41'0 0.0
2015-Jul-23 19:17N 52°07' E 003°41'0 0.0
2015-Jul-23 17:17N 52°07' E 003°41'0 0.1
2015-Jul-23 16:23N 52°07' E 003°41'0 0.0
2015-Jul-23 11:29N 52°07' E 003°41'0 0.1
2015-Jul-23 10:32N 52°07' E 003°42'0 0.0
2015-Jul-23 09:23N 52°07' E 003°42'0 0.0
2015-Jul-23 08:32N 52°07' E 003°42'0 0.0
2015-Jul-23 07:23N 52°07' E 003°42'0 0.0
2015-Jul-23 05:11N 52°07' E 003°42'0 0.1
2015-Jul-23 04:32N 52°07' E 003°42'0 0.0
2015-Jul-23 03:29N 52°07' E 003°41'0 0.0
2015-Jul-23 02:23N 52°07' E 003°41'0 0.0
2015-Jul-23 01:29N 52°07' E 003°41'0 0.0
2015-Jul-23 00:11N 52°07' E 003°41'0 0.1
2015-Jul-22 23:29N 52°07' E 003°41'0 0.1
2015-Jul-22 22:17N 52°07' E 003°42'0 0.0
2015-Jul-22 21:29N 52°07' E 003°42'0 0.0
2015-Jul-22 20:23N 52°07' E 003°42'0 0.0
2015-Jul-22 19:29N 52°07' E 003°42'0 0.0
2015-Jul-22 18:29N 52°07' E 003°41'0 0.0
2015-Jul-22 17:29N 52°07' E 003°42'0 0.0
2015-Jul-22 16:32N 52°07' E 003°42'0 0.0
2015-Jul-22 15:08N 52°07' E 003°41'0 0.0
2015-Jul-22 14:32N 52°07' E 003°42'0 0.0
2015-Jul-22 10:23N 52°07' E 003°42'0 0.0
2015-Jul-22 09:08N 52°07' E 003°42'0 0.0
2015-Jul-22 08:17N 52°07' E 003°42'0 0.0
2015-Jul-22 07:26N 52°07' E 003°42'0 0.0
2015-Jul-22 06:11N 52°07' E 003°42'0 0.0
2015-Jul-22 05:26N 52°07' E 003°42'0 0.0
2015-Jul-22 04:08N 52°07' E 003°42'0 0.0
2015-Jul-22 03:29N 52°07' E 003°42'0 0.0
2015-Jul-22 02:32N 52°07' E 003°42'0 0.0
2015-Jul-22 00:32N 52°07' E 003°42'0 0.0
2015-Jul-21 23:26N 52°07' E 003°42'0 0.0
2015-Jul-21 21:32N 52°07' E 003°42'0 0.0
2015-Jul-21 20:23N 52°07' E 003°41'0 0.0
2015-Jul-21 19:20N 52°07' E 003°41'0 0.0
2015-Jul-21 18:29N 52°07' E 003°41'0 0.0
2015-Jul-21 17:29N 52°07' E 003°41'0 0.0
2015-Jul-21 16:29N 52°07' E 003°42'0 0.0
2015-Jul-21 15:29N 52°07' E 003°42'0 0.0
2015-Jul-21 14:32N 52°07' E 003°41'0 0.1
2015-Jul-21 13:29N 52°07' E 003°41'0 0.0
2015-Jul-21 12:26N 52°07' E 003°41'0 0.1
2015-Jul-21 11:17N 52°07' E 003°41'0 0.0
2015-Jul-21 10:32N 52°07' E 003°42'0 0.0
2015-Jul-21 08:26N 52°07' E 003°42'0 0.0
2015-Jul-21 07:26N 52°07' E 003°42'0 0.0
2015-Jul-21 05:29N 52°07' E 003°42'0 0.0
2015-Jul-21 04:29N 52°07' E 003°42'0 0.0
2015-Jul-21 03:23N 52°07' E 003°42'0 0.0
2015-Jul-21 02:26N 52°07' E 003°42'0 0.0
2015-Jul-21 01:32N 52°07' E 003°42'0 0.0
2015-Jul-20 23:23N 52°07' E 003°41'0 0.0
2015-Jul-20 22:29N 52°07' E 003°42'0 0.0
2015-Jul-20 21:29N 52°07' E 003°42'0 0.0
2015-Jul-20 20:23N 52°07' E 003°41'0 0.0
2015-Jul-20 19:26N 52°07' E 003°42'0 0.0
2015-Jul-20 18:23N 52°07' E 003°41'0 0.0
2015-Jul-20 17:32N 52°07' E 003°41'0 0.0
2015-Jul-20 16:20N 52°07' E 003°41'0 0.0
2015-Jul-20 15:05N 52°07' E 003°41'0 0.1
2015-Jul-20 14:29N 52°07' E 003°41'0 0.0
2015-Jul-20 08:29N 52°07' E 003°41'0 0.0
2015-Jul-20 07:29N 52°07' E 003°41'0 0.0
2015-Jul-20 05:26N 52°07' E 003°41'0 0.0
2015-Jul-20 04:08N 52°07' E 003°41'0 0.0
2015-Jul-20 03:05N 52°07' E 003°41'0 0.0
2015-Jul-20 02:32N 52°07' E 003°41'0 0.0
2015-Jul-19 21:29N 52°07' E 003°41'0 0.1
2015-Jul-19 20:14N 52°07' E 003°41'0 0.0
2015-Jul-19 18:32N 52°07' E 003°41'0 0.0
2015-Jul-19 17:29N 52°07' E 003°42'0 0.0
2015-Jul-19 16:32N 52°07' E 003°41'0 0.0
2015-Jul-19 15:32N 52°07' E 003°41'0 0.0
2015-Jul-19 13:14N 52°07' E 003°42'0 0.1
2015-Jul-19 12:32N 52°07' E 003°42'0 0.0
2015-Jul-19 09:33N 52°07' E 003°41'9 8.8
2015-Jul-19 08:33N 52°02' E 003°53'1111.5
2015-Jul-19 07:33N 51°57' E 004°10'10 9.6
2015-Jul-19 06:33N 51°55' E 004°25'0 0.1
2015-Jul-19 05:32N 51°55' E 004°25'0 0.0
2015-Jul-19 04:32N 51°55' E 004°25'  

Dump ship's entire track history